Time;durP1;ratioP1;P1;durP2;ratioP2;P2;SDS_P1;SDS_P2;PMS_P1;PMS_P2;Temp;Humidity;BMP_temperature;BMP_pressure;BME280_temperature;BME280_humidity;BME280_pressure;Samples;Min_cycle;Max_cycle;Signal;HPM_P1;HPM_P2
2022/03/19 00:01:35;;;;;;;13.07;7.67;;;3.80;99.90;;;;;;5086398;28;20705;-49
2022/03/19 00:04:02;;;;;;;13.80;7.00;;;3.80;99.90;;;;;;5100883;28;20237;-46
2022/03/19 00:06:29;;;;;;;14.53;8.13;;;3.70;99.90;;;;;;5102333;28;20296;-52
2022/03/19 00:08:56;;;;;;;11.97;7.37;;;3.60;99.90;;;;;;5102770;28;20189;-51
2022/03/19 00:11:24;;;;;;;13.57;7.77;;;3.70;99.90;;;;;;5107297;27;20284;-49
2022/03/19 00:13:52;;;;;;;14.67;7.83;;;3.60;99.90;;;;;;5102953;28;20210;-48
2022/03/19 00:16:18;;;;;;;10.27;6.90;;;3.60;99.90;;;;;;5097430;28;20212;-48
2022/03/19 00:18:45;;;;;;;18.67;8.50;;;3.50;99.90;;;;;;5081271;28;20204;-47
2022/03/19 00:21:12;;;;;;;21.00;7.70;;;3.40;99.90;;;;;;5106919;28;20221;-46
2022/03/19 00:23:39;;;;;;;14.70;7.73;;;3.40;99.90;;;;;;5101700;28;20213;-52
2022/03/19 00:26:06;;;;;;;16.07;8.50;;;3.40;99.90;;;;;;5104631;28;20201;-45
2022/03/19 00:28:33;;;;;;;14.37;8.60;;;3.40;99.90;;;;;;5104540;28;20204;-50
2022/03/19 00:31:01;;;;;;;17.63;6.80;;;3.40;99.90;;;;;;5105577;28;20178;-45
2022/03/19 00:33:28;;;;;;;15.23;7.67;;;3.40;99.90;;;;;;5089648;28;20224;-51
2022/03/19 00:35:55;;;;;;;15.23;7.30;;;3.50;99.90;;;;;;5103438;28;20258;-49
2022/03/19 00:38:22;;;;;;;13.00;7.53;;;3.50;99.90;;;;;;5106162;28;20193;-50
2022/03/19 00:40:49;;;;;;;16.17;7.60;;;3.40;99.90;;;;;;5102905;28;21090;-45
2022/03/19 00:43:16;;;;;;;21.00;8.07;;;3.30;99.90;;;;;;5105325;28;20224;-46
2022/03/19 00:45:43;;;;;;;20.80;8.03;;;3.30;99.90;;;;;;5101225;28;21032;-46
2022/03/19 00:48:12;;;;;;;15.97;7.33;;;3.20;99.90;;;;;;5091581;28;20209;-47
2022/03/19 00:50:38;;;;;;;15.70;8.57;;;3.20;99.90;;;;;;5102862;28;20716;-47
2022/03/19 00:53:06;;;;;;;13.93;7.83;;;3.10;99.90;;;;;;5106143;28;20284;-45
2022/03/19 00:55:33;;;;;;;21.03;7.77;;;3.10;99.90;;;;;;5104275;28;20204;-47
2022/03/19 00:58:00;;;;;;;15.13;7.70;;;3.00;99.90;;;;;;5104060;28;20200;-46
2022/03/19 01:00:28;;;;;;;15.20;6.30;;;3.10;99.90;;;;;;5105268;28;20206;-46
2022/03/19 01:02:56;;;;;;;15.40;7.60;;;3.10;99.90;;;;;;5103505;28;20222;-49
2022/03/19 01:05:25;;;;;;;13.83;7.60;;;3.10;99.90;;;;;;5091071;28;20212;-48
2022/03/19 01:07:55;;;;;;;18.00;7.17;;;3.00;99.90;;;;;;5101947;28;20220;-46
2022/03/19 01:10:24;;;;;;;13.57;7.20;;;3.00;99.90;;;;;;5105859;28;20193;-46
2022/03/19 01:12:52;;;;;;;11.47;5.83;;;3.00;99.90;;;;;;5102847;28;20193;-45
2022/03/19 01:15:19;;;;;;;11.07;5.50;;;3.00;99.90;;;;;;5105559;28;20551;-46
2022/03/19 01:17:45;;;;;;;13.53;6.10;;;3.00;99.90;;;;;;5100016;27;20196;-46
2022/03/19 01:20:14;;;;;;;13.13;6.20;;;3.00;99.90;;;;;;5087026;28;20214;-46
2022/03/19 01:22:43;;;;;;;11.50;6.03;;;3.00;99.90;;;;;;5101688;28;20197;-45
2022/03/19 01:25:13;;;;;;;14.27;5.00;;;2.90;99.90;;;;;;5104387;28;20601;-43
2022/03/19 01:27:41;;;;;;;12.10;5.37;;;2.90;99.90;;;;;;5100116;28;20197;-46
2022/03/19 01:30:11;;;;;;;13.57;5.43;;;2.90;99.90;;;;;;5105484;28;20560;-43
2022/03/19 01:32:38;;;;;;;14.20;5.13;;;2.80;99.90;;;;;;5101286;28;20207;-46
2022/03/19 01:35:06;;;;;;;10.67;4.57;;;2.80;99.90;;;;;;5090620;28;20716;-44
2022/03/19 01:37:33;;;;;;;9.60;5.27;;;2.80;99.90;;;;;;5102088;28;20235;-49
2022/03/19 01:40:02;;;;;;;17.63;5.57;;;2.80;99.90;;;;;;5104018;28;20189;-45
2022/03/19 01:42:30;;;;;;;9.83;4.90;;;2.80;99.90;;;;;;5103129;28;20292;-52
2022/03/19 01:44:58;;;;;;;15.50;5.10;;;2.70;99.90;;;;;;5103046;28;20917;-46
2022/03/19 01:47:27;;;;;;;11.60;4.23;;;2.60;99.90;;;;;;5103747;28;20194;-48
2022/03/19 01:49:53;;;;;;;12.03;4.73;;;2.70;99.90;;;;;;5101194;28;20396;-45
2022/03/19 01:52:20;;;;;;;12.87;4.90;;;2.70;99.90;;;;;;5089830;28;20666;-48
2022/03/19 01:54:49;;;;;;;14.03;4.97;;;2.80;99.90;;;;;;5100877;28;20301;-47
2022/03/19 01:57:21;;;;;;;16.07;4.77;;;2.80;99.90;;;;;;5104116;28;20817;-49
2022/03/19 01:59:48;;;;;;;14.17;4.17;;;2.90;99.90;;;;;;5099527;28;20193;-47
2022/03/19 02:02:16;;;;;;;13.30;4.20;;;2.90;99.90;;;;;;5104512;28;20621;-49
2022/03/19 02:04:44;;;;;;;15.73;4.43;;;2.90;99.90;;;;;;5100123;28;20213;-46
2022/03/19 02:07:13;;;;;;;12.07;4.67;;;3.00;99.90;;;;;;5089943;28;20289;-46
2022/03/19 02:09:41;;;;;;;10.47;3.60;;;3.00;99.90;;;;;;5101291;28;20197;-52
2022/03/19 02:12:09;;;;;;;11.17;3.67;;;3.00;99.90;;;;;;5104594;28;20197;-48
2022/03/19 02:14:39;;;;;;;11.50;4.10;;;3.00;99.90;;;;;;5101661;28;20307;-49
2022/03/19 02:17:06;;;;;;;9.53;4.00;;;3.00;99.90;;;;;;5103893;28;20221;-46
2022/03/19 02:19:34;;;;;;;16.97;4.67;;;3.00;99.90;;;;;;5100742;28;20205;-53
2022/03/19 02:22:02;;;;;;;9.80;3.40;;;2.90;99.90;;;;;;5088903;28;20229;-49
2022/03/19 02:27:15;;;;;;;8.50;4.20;;;2.80;99.90;;;;;;5104040;28;20600;-49
2022/03/19 02:29:43;;;;;;;12.73;3.93;;;2.70;99.90;;;;;;5093470;28;20190;-49
2022/03/19 02:32:09;;;;;;;9.33;4.07;;;2.70;99.90;;;;;;5101672;28;20193;-45
2022/03/19 02:34:36;;;;;;;14.73;4.40;;;2.80;99.90;;;;;;5094024;27;20221;-49
2022/03/19 02:37:03;;;;;;;7.70;3.53;;;2.80;99.90;;;;;;5087521;28;20197;-45
2022/03/19 02:39:32;;;;;;;13.83;4.17;;;2.80;99.90;;;;;;5101426;28;20205;-48
2022/03/19 02:42:01;;;;;;;14.57;3.47;;;2.80;99.90;;;;;;5102421;28;20390;-44
2022/03/19 02:44:29;;;;;;;9.17;3.80;;;2.80;99.90;;;;;;5102144;28;20220;-48
2022/03/19 02:46:58;;;;;;;15.97;4.03;;;2.80;99.90;;;;;;5100107;28;20239;-45
2022/03/19 02:49:25;;;;;;;11.07;3.57;;;2.70;99.90;;;;;;5102341;28;20666;-49
2022/03/19 02:51:53;;;;;;;10.50;3.83;;;2.70;99.90;;;;;;5100851;28;20200;-49
2022/03/19 02:54:24;;;;;;;13.43;3.37;;;2.80;99.90;;;;;;5087065;28;20225;-48
2022/03/19 02:56:53;;;;;;;8.60;3.70;;;2.80;99.90;;;;;;5099855;28;20193;-46
2022/03/19 02:59:21;;;;;;;12.33;3.93;;;2.80;99.90;;;;;;5104068;28;20556;-47
2022/03/19 03:01:49;;;;;;;12.50;4.07;;;2.80;99.90;;;;;;5099837;28;20212;-48
2022/03/19 03:04:16;;;;;;;8.83;2.97;;;2.80;99.90;;;;;;5103411;28;20304;-46
2022/03/19 03:07:00;;;;;;;8.97;3.80;;;2.80;99.90;;;;;;5099599;28;20694;-48
2022/03/19 03:09:29;;;;;;;11.10;3.33;;;2.80;99.90;;;;;;5087914;28;20697;-43
2022/03/19 03:12:01;;;;;;;10.93;2.87;;;2.70;99.90;;;;;;5101317;28;20786;-47
2022/03/19 03:14:28;;;;;;;18.10;3.53;;;2.70;99.90;;;;;;5102233;28;20224;-51
2022/03/19 03:16:58;;;;;;;9.23;3.07;;;2.80;99.90;;;;;;5098612;28;20193;-47
2022/03/19 03:19:25;;;;;;;8.93;3.30;;;2.80;99.90;;;;;;5101983;27;20209;-50
2022/03/19 03:21:52;;;;;;;11.10;3.40;;;2.80;99.90;;;;;;5100645;28;20960;-47
2022/03/19 03:24:19;;;;;;;7.67;3.07;;;2.80;99.90;;;;;;5086957;28;20226;-46
2022/03/19 03:26:47;;;;;;;10.83;3.30;;;2.80;99.90;;;;;;5098605;28;20976;-48
2022/03/19 03:29:16;;;;;;;9.73;2.80;;;2.70;99.90;;;;;;5103674;28;20284;-49
2022/03/19 03:32:06;;;;;;;13.47;3.17;;;2.70;99.90;;;;;;5103142;28;20197;-45
2022/03/19 03:34:33;;;;;;;15.10;3.50;;;2.70;99.90;;;;;;5101547;28;20398;-48
2022/03/19 03:36:59;;;;;;;4.93;2.50;;;2.70;99.90;;;;;;5101242;28;20181;-46
2022/03/19 03:39:26;;;;;;;11.27;3.07;;;2.70;99.90;;;;;;5097414;28;20201;-50
2022/03/19 03:41:53;;;;;;;12.13;3.03;;;2.70;99.90;;;;;;5091999;28;20212;-46
2022/03/19 03:44:21;;;;;;;11.40;2.90;;;2.70;99.90;;;;;;5108988;28;20209;-46
2022/03/19 03:46:48;;;;;;;5.50;3.03;;;2.70;99.90;;;;;;5105581;28;20188;-47
2022/03/19 03:49:15;;;;;;;7.97;2.97;;;2.60;99.90;;;;;;5110384;28;20223;-48
2022/03/19 03:51:42;;;;;;;10.60;3.13;;;2.60;99.90;;;;;;5104205;27;20275;-45
2022/03/19 03:54:09;;;;;;;16.90;3.53;;;2.60;99.90;;;;;;5108391;28;20581;-44
2022/03/19 03:56:36;;;;;;;9.93;3.00;;;2.50;99.90;;;;;;5091907;27;20212;-47
2022/03/19 03:59:03;;;;;;;4.77;2.37;;;2.50;99.90;;;;;;5108925;28;20201;-47
2022/03/19 04:01:31;;;;;;;5.80;2.23;;;2.50;99.90;;;;;;5107947;27;20216;-47
2022/03/19 04:03:58;;;;;;;5.63;2.40;;;2.50;99.90;;;;;;5108177;27;20288;-45
2022/03/19 04:06:25;;;;;;;8.53;2.60;;;2.50;99.90;;;;;;5108942;28;20649;-50
2022/03/19 04:08:51;;;;;;;7.27;1.90;;;2.50;99.90;;;;;;5106476;28;20204;-45
2022/03/19 04:11:18;;;;;;;10.47;3.07;;;2.50;99.90;;;;;;5095088;28;20834;-45
2022/03/19 04:13:45;;;;;;;7.17;3.17;;;2.50;99.90;;;;;;5105283;27;20336;-46
2022/03/19 04:16:12;;;;;;;7.53;2.60;;;2.50;99.90;;;;;;5109298;27;20205;-51
2022/03/19 04:18:41;;;;;;;4.63;2.67;;;2.50;99.90;;;;;;5106308;28;20440;-45
2022/03/19 04:21:07;;;;;;;9.53;2.50;;;2.40;99.90;;;;;;5109961;28;20258;-46
2022/03/19 04:23:34;;;;;;;6.37;2.77;;;2.40;99.90;;;;;;5104396;28;20293;-50
2022/03/19 04:26:02;;;;;;;7.17;2.70;;;2.30;99.90;;;;;;5106948;28;20197;-45
2022/03/19 04:28:29;;;;;;;13.23;3.17;;;2.30;99.90;;;;;;5093020;28;20209;-48
2022/03/19 04:30:56;;;;;;;8.37;2.90;;;2.30;99.90;;;;;;5107709;28;20203;-45
2022/03/19 04:33:24;;;;;;;13.13;2.90;;;2.30;99.90;;;;;;5108917;28;20221;-47
2022/03/19 04:38:38;;;;;;;10.77;2.97;;;2.10;99.90;;;;;;5101367;28;20197;-49
2022/03/19 04:41:05;;;;;;;9.97;2.43;;;2.10;99.90;;;;;;5109056;28;20266;-45
2022/03/19 04:43:32;;;;;;;9.03;2.60;;;2.10;99.90;;;;;;5092624;28;20231;-47
2022/03/19 04:45:59;;;;;;;12.80;3.30;;;2.10;99.90;;;;;;5100048;27;20189;-49
2022/03/19 04:48:27;;;;;;;9.17;2.60;;;2.00;99.90;;;;;;5105327;28;20201;-51
2022/03/19 04:50:55;;;;;;;12.77;3.27;;;2.00;99.90;;;;;;5106954;28;20272;-46
2022/03/19 04:53:22;;;;;;;5.53;2.53;;;2.00;99.90;;;;;;5107911;28;20228;-48
2022/03/19 04:55:50;;;;;;;7.00;2.90;;;2.00;99.90;;;;;;5100815;28;20235;-47
2022/03/19 04:58:17;;;;;;;12.77;4.00;;;1.90;99.90;;;;;;5091191;28;20201;-46
2022/03/19 05:00:44;;;;;;;8.83;3.17;;;1.90;99.90;;;;;;5093653;28;20212;-45
2022/03/19 05:03:13;;;;;;;13.13;3.43;;;1.90;99.90;;;;;;5103861;28;20591;-52
2022/03/19 05:05:40;;;;;;;7.00;2.53;;;1.90;99.90;;;;;;5100229;28;20911;-46
2022/03/19 05:08:08;;;;;;;9.00;2.97;;;1.80;99.90;;;;;;5105439;28;20586;-45
2022/03/19 05:13:21;;;;;;;9.57;2.73;;;1.70;99.90;;;;;;5082451;28;20265;-48
2022/03/19 05:15:48;;;;;;;10.43;3.27;;;1.60;99.90;;;;;;5100494;28;20489;-45
2022/03/19 05:18:15;;;;;;;7.00;3.43;;;1.60;99.90;;;;;;5103709;28;20207;-49
2022/03/19 05:20:42;;;;;;;9.87;3.00;;;1.60;99.90;;;;;;5100407;28;20208;-45
2022/03/19 05:23:10;;;;;;;12.00;3.80;;;1.60;99.90;;;;;;5104351;28;20216;-50
2022/03/19 05:25:39;;;;;;;13.60;2.50;;;1.60;99.90;;;;;;5088240;28;20204;-44
2022/03/19 05:28:05;;;;;;;7.10;2.97;;;1.50;99.90;;;;;;5086357;28;20213;-43
2022/03/19 05:30:32;;;;;;;14.90;2.77;;;1.50;99.90;;;;;;5089401;28;20201;-44
2022/03/19 05:33:00;;;;;;;6.83;3.07;;;1.60;99.90;;;;;;5096445;28;20201;-47
2022/03/19 05:35:27;;;;;;;6.23;3.30;;;1.60;99.90;;;;;;5099567;28;20656;-47
2022/03/19 05:37:54;;;;;;;10.50;3.40;;;1.60;99.90;;;;;;5095545;28;20243;-47
2022/03/19 05:40:21;;;;;;;9.37;3.10;;;1.60;99.90;;;;;;5100132;28;20203;-48
2022/03/19 05:42:48;;;;;;;12.10;3.30;;;1.60;99.90;;;;;;5095847;28;20308;-47
2022/03/19 05:45:16;;;;;;;14.40;3.13;;;1.70;99.90;;;;;;5075421;28;20589;-48
2022/03/19 05:47:43;;;;;;;10.37;2.90;;;1.70;99.90;;;;;;5086360;27;20216;-47
2022/03/19 05:50:10;;;;;;;9.23;2.87;;;1.70;99.90;;;;;;5095831;28;20546;-47
2022/03/19 05:52:37;;;;;;;7.37;2.53;;;1.70;99.90;;;;;;5082109;28;20208;-45
2022/03/19 05:55:04;;;;;;;8.20;2.70;;;1.70;99.90;;;;;;5088708;28;20224;-44
2022/03/19 05:57:32;;;;;;;16.47;3.87;;;1.70;99.90;;;;;;5096110;28;20270;-41
2022/03/19 06:00:00;;;;;;;11.47;3.57;;;1.80;99.90;;;;;;5075446;28;20500;-44
2022/03/19 06:02:27;;;;;;;6.83;3.10;;;1.90;99.90;;;;;;5099341;28;20277;-43
2022/03/19 06:04:54;;;;;;;7.03;2.37;;;2.00;99.90;;;;;;5094946;28;20216;-50
2022/03/19 06:07:21;;;;;;;12.77;3.23;;;2.00;99.90;;;;;;5095470;28;20212;-41
2022/03/19 06:09:48;;;;;;;8.47;2.80;;;2.10;99.90;;;;;;5099194;28;20287;-45
2022/03/19 06:12:14;;;;;;;11.77;3.70;;;2.10;99.90;;;;;;5094822;28;20542;-40
2022/03/19 06:14:42;;;;;;;8.23;3.23;;;2.20;99.90;;;;;;5091825;28;20221;-47
2022/03/19 06:17:10;;;;;;;8.70;2.93;;;2.20;99.90;;;;;;5088775;28;20204;-45
2022/03/19 06:19:37;;;;;;;9.73;2.90;;;2.30;99.90;;;;;;5096232;28;20201;-43
2022/03/19 06:22:05;;;;;;;10.63;2.70;;;2.30;99.90;;;;;;5092226;28;20231;-46
2022/03/19 06:24:31;;;;;;;11.93;3.10;;;2.40;99.90;;;;;;5098349;28;20224;-41
2022/03/19 06:26:58;;;;;;;7.30;3.03;;;2.40;99.90;;;;;;5091046;28;20211;-42
2022/03/19 06:29:25;;;;;;;8.83;2.50;;;2.50;99.90;;;;;;5075975;28;20208;-50
2022/03/19 06:31:53;;;;;;;9.83;3.53;;;2.50;99.90;;;;;;5065852;28;20212;-42
2022/03/19 06:34:20;;;;;;;12.47;3.20;;;2.60;99.90;;;;;;5085812;28;20311;-49
2022/03/19 06:39:31;;;;;;;8.70;3.00;;;2.80;99.90;;;;;;5100158;28;20208;-41
2022/03/19 06:41:58;;;;;;;11.20;2.73;;;2.90;99.90;;;;;;5095426;28;20213;-40
2022/03/19 06:44:25;;;;;;;9.63;3.43;;;3.00;99.90;;;;;;5094919;27;20774;-46
2022/03/19 06:46:53;;;;;;;12.10;3.07;;;3.00;99.90;;;;;;5078328;28;20205;-40
2022/03/19 06:49:20;;;;;;;6.13;2.67;;;3.10;99.90;;;;;;5096037;28;20204;-41
2022/03/19 06:51:47;;;;;;;11.57;2.83;;;3.10;99.90;;;;;;5094940;28;20217;-45
2022/03/19 06:54:14;;;;;;;11.07;2.67;;;3.20;99.90;;;;;;5095744;27;20221;-40
2022/03/19 06:56:40;;;;;;;12.07;2.60;;;3.30;99.90;;;;;;5103399;27;20204;-40
2022/03/19 06:59:07;;;;;;;9.70;3.03;;;3.40;99.90;;;;;;5105760;27;20204;-42
2022/03/19 07:01:36;;;;;;;8.47;3.03;;;3.40;99.90;;;;;;5087539;27;20198;-44
2022/03/19 07:04:05;;;;;;;6.03;2.70;;;3.50;99.90;;;;;;5103630;27;20214;-40
2022/03/19 07:06:32;;;;;;;9.63;3.33;;;3.60;99.90;;;;;;5093303;27;20205;-41
2022/03/19 07:08:58;;;;;;;10.40;3.47;;;3.70;99.90;;;;;;5105493;27;20582;-39
2022/03/19 07:11:25;;;;;;;6.40;2.83;;;3.80;99.90;;;;;;5095227;28;20280;-40
2022/03/19 07:13:52;;;;;;;9.63;2.93;;;3.80;99.90;;;;;;5095813;28;20209;-41
2022/03/19 07:16:19;;;;;;;9.13;2.97;;;4.00;99.90;;;;;;5098979;28;20247;-41
2022/03/19 07:18:46;;;;;;;7.33;2.43;;;4.00;99.90;;;;;;5084882;27;20209;-41
2022/03/19 07:21:15;;;;;;;7.07;2.97;;;4.10;99.90;;;;;;5098654;27;20197;-42
2022/03/19 07:23:42;;;;;;;6.83;2.60;;;4.20;99.90;;;;;;5081522;28;20303;-41
2022/03/19 07:26:09;;;;;;;8.17;2.73;;;4.30;99.90;;;;;;5098896;28;20197;-42
2022/03/19 07:28:36;;;;;;;6.70;2.70;;;4.40;99.90;;;;;;5097430;28;20189;-40
2022/03/19 07:31:03;;;;;;;7.70;2.60;;;4.50;99.90;;;;;;5098065;27;20193;-43
2022/03/19 07:33:33;;;;;;;7.93;2.73;;;4.60;99.90;;;;;;5084212;27;20618;-42
2022/03/19 07:36:01;;;;;;;9.30;2.63;;;4.60;99.90;;;;;;5085987;28;20669;-41
2022/03/19 07:38:31;;;;;;;4.87;2.17;;;4.70;99.90;;;;;;5102056;27;20222;-40
2022/03/19 07:43:43;;;;;;;8.63;2.60;;;4.90;99.90;;;;;;5096544;28;20225;-41
2022/03/19 07:46:11;;;;;;;8.23;2.80;;;5.00;99.90;;;;;;5097951;28;20692;-40
2022/03/19 07:48:39;;;;;;;9.00;2.73;;;5.10;99.90;;;;;;5080460;28;20209;-43
2022/03/19 07:51:06;;;;;;;7.00;2.50;;;5.20;99.90;;;;;;5099618;28;20258;-43
2022/03/19 07:53:37;;;;;;;7.90;2.40;;;5.20;99.90;;;;;;5094218;28;20300;-41
2022/03/19 07:56:05;;;;;;;4.40;2.37;;;5.40;99.90;;;;;;5101686;28;20204;-41
2022/03/19 07:58:32;;;;;;;10.77;2.77;;;5.40;99.90;;;;;;5097911;28;20197;-41
2022/03/19 08:00:59;;;;;;;8.13;1.50;;;5.60;99.90;;;;;;5096156;28;20515;-41
2022/03/19 08:03:26;;;;;;;5.93;2.07;;;5.70;99.90;;;;;;5091115;28;20240;-42
2022/03/19 08:05:52;;;;;;;9.53;2.40;;;5.80;99.90;;;;;;5080955;28;20213;-43
2022/03/19 08:08:20;;;;;;;9.60;1.73;;;5.90;99.90;;;;;;5095425;28;20204;-38
2022/03/19 08:10:48;;;;;;;11.27;2.53;;;6.00;99.90;;;;;;5091859;28;20205;-39
2022/03/19 08:13:15;;;;;;;11.97;2.30;;;6.10;99.90;;;;;;5101100;28;20238;-39
2022/03/19 08:15:42;;;;;;;6.23;1.90;;;6.20;99.90;;;;;;5086776;28;20244;-40
2022/03/19 08:18:10;;;;;;;6.10;1.37;;;6.40;99.90;;;;;;5108441;28;20193;-39
2022/03/19 08:20:37;;;;;;;9.23;1.80;;;6.40;99.90;;;;;;5083046;28;20860;-39
2022/03/19 08:23:04;;;;;;;4.87;1.43;;;6.50;99.90;;;;;;5097836;28;20219;-40
2022/03/19 08:25:31;;;;;;;8.17;1.97;;;6.60;99.90;;;;;;5100705;28;20201;-39
2022/03/19 08:27:59;;;;;;;6.40;1.87;;;6.60;99.90;;;;;;5088997;28;20281;-39
2022/03/19 08:30:27;;;;;;;7.37;1.80;;;6.70;99.90;;;;;;5091623;27;20205;-39
2022/03/19 08:32:53;;;;;;;6.33;1.80;;;6.80;99.90;;;;;;5102521;27;20729;-39
2022/03/19 08:35:20;;;;;;;5.63;1.70;;;6.80;99.90;;;;;;5103755;27;20888;-40
2022/03/19 08:37:47;;;;;;;4.17;1.43;;;6.90;99.90;;;;;;5081840;28;20200;-41
2022/03/19 08:40:16;;;;;;;5.80;1.87;;;7.00;99.90;;;;;;5094238;28;20238;-40
2022/03/19 08:42:45;;;;;;;5.53;2.83;;;7.10;99.90;;;;;;5090298;28;20204;-40
2022/03/19 08:45:13;;;;;;;6.10;1.70;;;7.10;99.90;;;;;;5095379;27;20225;-40
2022/03/19 08:47:40;;;;;;;3.73;1.57;;;7.30;99.90;;;;;;5086498;28;20204;-40
2022/03/19 08:50:08;;;;;;;7.33;1.73;;;7.30;99.90;;;;;;5085149;28;20272;-41
2022/03/19 08:52:36;;;;;;;5.93;1.70;;;7.40;99.90;;;;;;5077545;27;20263;-42
2022/03/19 08:55:04;;;;;;;6.93;2.10;;;7.50;99.90;;;;;;5113402;27;20208;-41
2022/03/19 08:57:32;;;;;;;6.33;1.80;;;7.50;99.90;;;;;;5104038;27;20201;-40
2022/03/19 08:59:59;;;;;;;4.13;2.10;;;7.50;99.90;;;;;;5093467;28;20568;-42
2022/03/19 09:02:28;;;;;;;3.43;1.57;;;7.60;99.90;;;;;;5096218;27;20693;-40
2022/03/19 09:04:54;;;;;;;7.63;2.00;;;7.60;99.90;;;;;;5106315;27;20220;-41
2022/03/19 09:07:21;;;;;;;4.70;1.80;;;7.70;99.90;;;;;;5096338;27;20213;-40
2022/03/19 09:09:52;;;;;;;7.53;1.87;;;7.80;99.90;;;;;;5092122;27;20193;-39
2022/03/19 09:12:26;;;;;;;4.93;1.57;;;7.80;99.90;;;;;;5106474;27;20197;-39
2022/03/19 09:14:54;;;;;;;7.80;1.80;;;7.90;99.90;;;;;;5088525;27;20722;-39
2022/03/19 09:17:21;;;;;;;5.33;2.03;;;8.00;99.90;;;;;;5097862;27;20208;-39
2022/03/19 09:19:49;;;;;;;6.33;1.40;;;8.00;99.90;;;;;;5092019;28;20209;-39
2022/03/19 09:22:16;;;;;;;7.57;1.77;;;8.00;99.90;;;;;;5103983;27;20281;-39
2022/03/19 09:24:43;;;;;;;5.80;1.83;;;8.20;99.90;;;;;;5089893;28;20228;-41
2022/03/19 09:27:11;;;;;;;6.17;1.63;;;8.30;99.90;;;;;;5094285;28;20673;-39
2022/03/19 09:29:37;;;;;;;6.37;2.00;;;8.30;99.90;;;;;;5098085;27;20213;-39
2022/03/19 09:32:05;;;;;;;4.03;1.40;;;8.30;99.90;;;;;;5100253;28;20201;-39
2022/03/19 09:34:32;;;;;;;9.17;1.70;;;8.40;99.90;;;;;;5097897;28;20209;-41
2022/03/19 09:37:00;;;;;;;5.60;1.43;;;8.40;99.90;;;;;;5096982;28;20216;-40
2022/03/19 09:39:27;;;;;;;3.80;1.67;;;8.50;99.90;;;;;;5082132;28;20212;-41
2022/03/19 09:41:55;;;;;;;5.07;1.67;;;8.60;99.90;;;;;;5099513;28;20193;-42
2022/03/19 09:44:25;;;;;;;6.80;1.90;;;8.70;99.90;;;;;;5100503;28;20258;-40
2022/03/19 09:46:52;;;;;;;6.57;1.63;;;8.70;99.90;;;;;;5090118;28;20297;-41
2022/03/19 09:49:19;;;;;;;4.77;1.80;;;8.70;99.90;;;;;;5097931;27;20570;-39
2022/03/19 09:51:53;;;;;;;5.53;1.50;;;8.70;99.90;;;;;;5091944;27;20190;-40
2022/03/19 09:54:21;;;;;;;3.73;1.77;;;8.80;99.90;;;;;;5094216;27;20337;-40
2022/03/19 09:56:49;;;;;;;3.23;1.20;;;8.90;99.90;;;;;;5098739;27;20193;-40
2022/03/19 09:59:16;;;;;;;2.70;1.30;;;8.90;99.90;;;;;;5102264;27;20198;-43
2022/03/19 10:01:42;;;;;;;3.23;0.90;;;9.00;99.90;;;;;;5093639;27;20197;-39
2022/03/19 10:04:12;;;;;;;3.00;1.23;;;;;;;;;;5097725;27;20209;-40
2022/03/19 10:09:40;;;;;;;5.47;1.73;;;9.30;99.90;;;;;;5075373;28;20315;-48
2022/03/19 10:12:13;;;;;;;4.70;1.27;;;9.30;99.90;;;;;;5088785;27;20193;-48
2022/03/19 10:14:40;;;;;;;3.60;1.20;;;9.40;99.90;;;;;;5088917;27;20690;-48
2022/03/19 10:17:07;;;;;;;1.90;1.07;;;9.40;99.90;;;;;;5092627;27;20190;-48
2022/03/19 10:19:50;;;;;;;3.43;0.97;;;9.50;99.90;;;;;;5093781;28;20286;-48
2022/03/19 10:22:25;;;;;;;4.40;1.50;;;9.50;99.90;;;;;;5092622;27;20197;-40
2022/03/19 10:24:58;;;;;;;5.23;1.63;;;9.70;99.90;;;;;;5085652;27;20216;-39
2022/03/19 10:27:26;;;;;;;5.60;1.30;;;9.70;99.90;;;;;;5097326;27;20201;-40
2022/03/19 10:30:09;;;;;;;2.47;1.10;;;9.70;99.90;;;;;;5095980;27;20964;-40
2022/03/19 10:32:36;;;;;;;7.30;1.67;;;9.90;99.90;;;;;;5098201;28;20286;-40
2022/03/19 10:35:03;;;;;;;2.27;1.03;;;10.00;99.90;;;;;;5095735;27;21015;-39
2022/03/19 10:37:38;;;;;;;2.80;1.50;;;10.10;99.90;;;;;;5099904;27;20193;-40
2022/03/19 10:40:09;;;;;;;3.53;1.40;;;10.10;99.90;;;;;;5092935;27;20192;-40
2022/03/19 10:42:41;;;;;;;3.67;1.33;;;10.10;99.90;;;;;;5072618;27;20209;-40
2022/03/19 10:45:11;;;;;;;4.53;1.37;;;10.10;99.90;;;;;;5097548;27;20243;-42
2022/03/19 10:47:43;;;;;;;1.67;1.00;;;10.00;99.90;;;;;;5095622;27;20197;-40
2022/03/19 10:50:10;;;;;;;6.53;1.20;;;10.20;99.90;;;;;;5085604;28;20285;-40
2022/03/19 10:52:38;;;;;;;2.10;1.10;;;;;;;;;;5101479;27;20197;-39
2022/03/19 10:55:08;;;;;;;3.73;0.90;;;10.10;99.90;;;;;;5092139;27;20212;-41
2022/03/19 10:57:36;;;;;;;2.30;0.90;;;10.00;99.90;;;;;;5078841;27;20701;-44
2022/03/19 11:00:04;;;;;;;3.67;1.33;;;10.00;99.90;;;;;;5090812;27;20190;-40
2022/03/19 11:02:32;;;;;;;5.43;1.50;;;10.00;99.90;;;;;;5095942;27;20197;-42
2022/03/19 11:05:00;;;;;;;5.13;1.43;;;10.00;99.90;;;;;;5092703;28;20931;-41
2022/03/19 11:07:32;;;;;;;4.77;1.30;;;10.00;99.90;;;;;;5100334;27;20202;-41
2022/03/19 11:10:00;;;;;;;2.47;1.37;;;10.00;99.90;;;;;;5095015;27;20189;-41
2022/03/19 11:12:31;;;;;;;1.77;0.90;;;10.00;99.90;;;;;;5094724;28;20213;-41
2022/03/19 11:14:59;;;;;;;2.57;1.23;;;10.00;99.90;;;;;;5079365;28;20206;-45
2022/03/19 11:17:30;;;;;;;2.00;0.93;;;10.20;99.90;;;;;;5090042;28;20200;-44
2022/03/19 11:19:59;;;;;;;1.57;0.70;;;10.10;99.90;;;;;;5080983;28;20958;-41
2022/03/19 11:22:27;;;;;;;2.23;0.87;;;10.10;99.90;;;;;;5097192;27;20201;-40
2022/03/19 11:25:02;;;;;;;1.30;1.10;;;10.10;99.90;;;;;;5082810;27;20239;-42
2022/03/19 11:27:33;;;;;;;1.33;0.70;;;10.20;99.90;;;;;;5088243;27;20208;-41
2022/03/19 11:30:00;;;;;;;1.80;1.43;;;10.20;99.90;;;;;;5078643;27;20418;-41
2022/03/19 11:32:27;;;;;;;2.17;0.97;;;10.20;99.90;;;;;;5095790;27;20564;-41
2022/03/19 11:34:59;;;;;;;3.40;1.17;;;10.20;99.90;;;;;;5096507;27;21144;-41
2022/03/19 11:37:47;;;;;;;1.60;0.90;;;10.10;99.90;;;;;;5092162;28;20204;-40
2022/03/19 11:40:32;;;;;;;2.87;1.00;;;10.20;99.90;;;;;;5095341;28;20201;-40
2022/03/19 11:43:02;;;;;;;2.43;0.80;;;10.20;99.90;;;;;;5086371;28;20272;-39
2022/03/19 11:45:51;;;;;;;2.73;1.00;;;10.20;99.90;;;;;;5080625;28;20205;-43
2022/03/19 11:48:54;;;;;;;5.90;1.17;;;10.30;99.90;;;;;;5097164;28;20194;-40
2022/03/19 11:51:32;;;;;;;4.67;1.30;;;10.40;99.90;;;;;;5089827;28;20200;-41
2022/03/19 11:54:00;;;;;;;4.20;1.20;;;10.40;99.90;;;;;;5087139;28;20291;-41
2022/03/19 11:56:49;;;;;;;1.17;0.90;;;10.40;99.90;;;;;;5086696;28;20332;-40
2022/03/19 12:02:10;;;;;;;2.27;1.00;;;10.30;99.90;;;;;;5082043;27;20845;-41
2022/03/19 12:04:47;;;;;;;2.33;1.17;;;10.40;99.90;;;;;;5078636;28;20224;-41
2022/03/19 12:07:29;;;;;;;2.17;0.70;;;10.50;99.90;;;;;;5070541;28;20208;-40
2022/03/19 12:10:00;;;;;;;1.60;1.00;;;10.60;99.90;;;;;;5049036;28;20206;-40
2022/03/19 12:12:27;;;;;;;1.77;1.00;;;10.50;99.90;;;;;;5062168;28;20696;-39
2022/03/19 12:14:56;;;;;;;3.13;1.27;;;10.40;99.90;;;;;;5050654;28;20373;-40
2022/03/19 12:17:31;;;;;;;3.77;1.00;;;10.40;99.90;;;;;;5069313;28;20194;-40
2022/03/19 12:20:01;;;;;;;3.80;1.10;;;10.40;99.90;;;;;;5066616;28;20441;-40
2022/03/19 12:22:33;;;;;;;2.67;1.00;;;10.50;99.90;;;;;;5066761;28;20282;-39
2022/03/19 12:25:11;;;;;;;4.17;1.50;;;10.40;99.90;;;;;;5067456;28;20233;-39
2022/03/19 12:27:38;;;;;;;4.73;1.50;;;10.50;99.90;;;;;;5071330;28;20215;-40
2022/03/19 12:30:08;;;;;;;2.77;1.10;;;10.60;99.90;;;;;;5072969;28;20196;-42
2022/03/19 12:32:49;;;;;;;4.60;1.13;;;10.70;99.90;;;;;;5063050;28;20198;-41
2022/03/19 12:35:17;;;;;;;5.57;1.47;;;10.60;99.90;;;;;;5072715;28;20242;-41
2022/03/19 12:37:49;;;;;;;3.73;1.60;;;10.50;99.90;;;;;;5070586;28;20209;-57
2022/03/19 12:40:19;;;;;;;4.27;1.33;;;10.50;99.90;;;;;;5068208;28;20221;-39
2022/03/19 12:42:51;;;;;;;3.40;1.33;;;10.50;99.90;;;;;;5066442;28;20213;-39
2022/03/19 12:45:18;;;;;;;3.53;1.30;;;10.40;99.90;;;;;;5071566;28;20317;-38
2022/03/19 12:47:50;;;;;;;4.47;1.83;;;10.40;99.90;;;;;;5059836;28;20594;-39
2022/03/19 12:50:18;;;;;;;3.63;1.33;;;10.50;99.90;;;;;;5073932;28;20976;-39
2022/03/19 12:52:45;;;;;;;2.63;1.80;;;10.60;99.90;;;;;;5067955;28;20611;-39
2022/03/19 12:55:20;;;;;;;2.10;1.37;;;10.60;99.90;;;;;;5064827;28;20229;-38
2022/03/19 12:57:55;;;;;;;1.23;1.13;;;10.80;99.90;;;;;;5068742;28;20283;-39
2022/03/19 13:00:22;;;;;;;3.13;1.70;;;10.90;99.90;;;;;;5072308;28;20218;-38
2022/03/19 13:02:51;;;;;;;2.63;1.53;;;10.90;99.90;;;;;;5058721;28;20213;-39
2022/03/19 13:05:17;;;;;;;3.27;1.37;;;10.80;99.90;;;;;;5074123;28;20305;-39
2022/03/19 13:08:03;;;;;;;2.10;1.53;;;10.70;99.90;;;;;;5067281;28;20718;-39
2022/03/19 13:10:30;;;;;;;2.37;1.93;;;10.70;99.90;;;;;;5064810;28;20633;-39
2022/03/19 13:13:06;;;;;;;5.23;1.60;;;10.60;99.90;;;;;;5057288;28;20230;-38
2022/03/19 13:15:33;;;;;;;5.47;1.70;;;10.50;99.90;;;;;;5059169;28;20268;-39
2022/03/19 13:18:01;;;;;;;6.37;1.93;;;10.70;99.90;;;;;;5045116;28;20340;-39
2022/03/19 13:20:28;;;;;;;2.20;1.37;;;10.90;99.90;;;;;;5053752;28;20219;-39